Time;durP1;ratioP1;P1;durP2;ratioP2;P2;SDS_P1;SDS_P2;PMS_P1;PMS_P2;Temp;Humidity;BMP_temperature;BMP_pressure;BME280_temperature;BME280_humidity;BME280_pressure;Samples;Min_cycle;Max_cycle;Signal;HPM_P1;HPM_P2
2021/06/10 00:02:24;;;;;;;12.17;10.63;;;17.40;99.90;;;;;;4999664;28;20488;-77
2021/06/10 00:04:51;;;;;;;12.17;10.97;;;17.30;99.90;;;;;;5013539;28;20628;-78
2021/06/10 00:07:18;;;;;;;12.00;10.67;;;17.30;99.90;;;;;;5012874;28;21015;-77
2021/06/10 00:09:46;;;;;;;12.53;11.43;;;17.30;99.90;;;;;;4998526;28;20541;-78
2021/06/10 00:12:13;;;;;;;12.50;11.30;;;17.20;99.90;;;;;;4999063;28;20459;-78
2021/06/10 00:14:41;;;;;;;12.73;11.30;;;17.20;99.90;;;;;;4998232;28;20473;-78
2021/06/10 00:17:08;;;;;;;12.03;10.83;;;17.20;99.90;;;;;;4998961;28;20471;-77
2021/06/10 00:19:35;;;;;;;12.63;11.50;;;17.10;99.90;;;;;;5002857;28;20456;-77
2021/06/10 00:22:01;;;;;;;11.40;10.30;;;17.10;99.90;;;;;;4999371;28;20439;-79
2021/06/10 00:24:28;;;;;;;12.27;11.07;;;17.10;99.90;;;;;;4999807;28;20563;-77
2021/06/10 00:26:54;;;;;;;11.10;10.20;;;17.10;99.90;;;;;;5000741;28;20904;-79
2021/06/10 00:29:21;;;;;;;11.70;10.70;;;17.10;99.90;;;;;;5001454;28;20480;-78
2021/06/10 00:31:47;;;;;;;12.57;11.37;;;17.10;99.90;;;;;;5001418;28;20467;-79
2021/06/10 00:34:15;;;;;;;11.70;10.67;;;17.10;99.90;;;;;;4997463;28;20454;-78
2021/06/10 00:36:42;;;;;;;11.77;10.67;;;17.20;99.90;;;;;;4996482;28;20437;-78
2021/06/10 00:39:09;;;;;;;12.33;11.23;;;17.10;99.90;;;;;;4997102;28;20439;-79
2021/06/10 00:41:37;;;;;;;11.77;10.77;;;17.10;99.90;;;;;;4997193;28;20535;-78
2021/06/10 00:44:06;;;;;;;11.23;10.23;;;17.00;99.90;;;;;;4996407;28;20555;-79
2021/06/10 00:46:32;;;;;;;12.20;11.10;;;17.00;99.90;;;;;;4998330;28;20456;-77
2021/06/10 00:48:59;;;;;;;12.50;11.40;;;17.00;99.90;;;;;;5002125;28;20487;-78
2021/06/10 00:51:27;;;;;;;13.43;11.00;;;17.00;99.90;;;;;;4996310;28;20456;-77
2021/06/10 00:53:55;;;;;;;13.37;11.60;;;17.00;99.90;;;;;;4996671;28;20895;-78
2021/06/10 00:56:22;;;;;;;12.35;11.23;;;16.90;99.90;;;;;;5006936;28;20467;-80
2021/06/10 00:58:49;;;;;;;12.70;11.40;;;16.90;99.90;;;;;;5006001;28;20208;-81
2021/06/10 01:01:15;;;;;;;11.87;10.67;;;16.80;99.90;;;;;;5007036;28;20451;-80
2021/06/10 01:03:42;;;;;;;12.27;11.23;;;16.90;99.90;;;;;;5000933;28;20468;-79
2021/06/10 01:06:19;;;;;;;12.80;11.63;;;16.80;99.90;;;;;;4996871;28;20933;-78
2021/06/10 01:08:55;;;;;;;12.63;11.50;;;16.80;99.90;;;;;;4996387;28;20586;-79
2021/06/10 01:11:27;;;;;;;13.97;11.10;;;16.80;99.90;;;;;;4996234;28;20455;-78
2021/06/10 01:14:03;;;;;;;11.30;10.10;;;16.70;99.90;;;;;;4997040;28;20511;-78
2021/06/10 01:16:33;;;;;;;12.33;11.23;;;16.70;99.90;;;;;;4998146;28;20494;-78
2021/06/10 01:19:07;;;;;;;12.60;11.47;;;16.70;99.90;;;;;;4998309;28;20940;-78
2021/06/10 01:21:36;;;;;;;13.00;11.60;;;16.60;99.90;;;;;;5005002;28;20470;-79
2021/06/10 01:24:13;;;;;;;11.37;10.30;;;16.60;99.90;;;;;;5006072;28;20951;-79
2021/06/10 01:26:52;;;;;;;12.07;10.90;;;16.60;99.90;;;;;;5005732;28;20438;-79
2021/06/10 01:29:22;;;;;;;11.77;10.67;;;16.60;99.90;;;;;;5001348;28;20450;-81
2021/06/10 01:31:49;;;;;;;14.07;11.73;;;16.60;99.90;;;;;;5002249;28;20459;-78
2021/06/10 01:34:16;;;;;;;13.40;11.20;;;16.50;99.90;;;;;;5003107;28;20470;-79
2021/06/10 01:36:46;;;;;;;13.20;11.20;;;16.60;99.90;;;;;;5002761;28;20522;-77
2021/06/10 01:39:16;;;;;;;12.47;11.20;;;16.60;99.90;;;;;;5001031;28;20454;-79
2021/06/10 01:41:43;;;;;;;12.20;11.00;;;16.50;99.90;;;;;;5002815;28;20498;-78
2021/06/10 01:44:12;;;;;;;13.27;11.83;;;16.50;99.90;;;;;;5006483;28;20948;-79
2021/06/10 01:46:41;;;;;;;11.73;10.53;;;16.50;99.90;;;;;;5002578;28;20438;-79
2021/06/10 01:49:16;;;;;;;13.23;11.50;;;16.50;99.90;;;;;;4998738;28;20527;-78
2021/06/10 01:51:43;;;;;;;12.30;11.20;;;16.50;99.90;;;;;;4996214;28;21015;-78
2021/06/10 01:54:12;;;;;;;11.80;9.30;;;16.50;99.90;;;;;;4995435;28;20501;-77
2021/06/10 01:56:41;;;;;;;12.00;10.90;;;16.50;99.90;;;;;;4996479;28;21037;-78
2021/06/10 01:59:09;;;;;;;11.90;10.25;;;16.50;99.90;;;;;;4997119;28;20526;-79
2021/06/10 02:01:37;;;;;;;15.57;9.93;;;16.50;99.90;;;;;;4996527;28;20212;-78
2021/06/10 02:04:08;;;;;;;11.10;10.20;;;16.50;99.90;;;;;;5001606;28;20517;-79
2021/06/10 02:06:36;;;;;;;11.10;10.00;;;16.50;99.90;;;;;;5000096;28;20459;-78
2021/06/10 02:09:05;;;;;;;10.63;9.60;;;16.50;99.90;;;;;;4998607;28;20563;-79
2021/06/10 02:11:33;;;;;;;11.27;10.10;;;16.50;99.90;;;;;;4996247;28;20534;-79
2021/06/10 02:14:00;;;;;;;11.77;9.37;;;16.40;99.90;;;;;;4996410;28;20483;-79
2021/06/10 02:16:27;;;;;;;9.67;8.87;;;16.40;99.90;;;;;;5010598;28;20451;-79
2021/06/10 02:18:54;;;;;;;10.47;9.50;;;16.40;99.90;;;;;;5015121;28;20447;-79
2021/06/10 02:21:22;;;;;;;15.00;10.03;;;16.40;99.90;;;;;;5012722;28;20460;-79
2021/06/10 02:23:49;;;;;;;10.60;9.60;;;16.50;99.90;;;;;;5013588;28;20434;-80
2021/06/10 02:26:17;;;;;;;10.13;9.33;;;16.40;99.90;;;;;;5019312;28;20433;-79
2021/06/10 02:28:43;;;;;;;9.30;8.50;;;16.40;99.60;;;;;;5019009;28;20459;-81
2021/06/10 02:31:11;;;;;;;10.63;9.17;;;16.40;99.30;;;;;;5019411;28;20434;-79
2021/06/10 02:33:39;;;;;;;11.13;8.57;;;16.40;98.90;;;;;;5019370;28;20476;-80
2021/06/10 02:36:07;;;;;;;10.57;9.57;;;16.30;98.70;;;;;;5014930;28;20455;-78
2021/06/10 02:38:37;;;;;;;10.93;9.93;;;16.30;99.30;;;;;;5012464;28;20447;-78
2021/06/10 02:41:05;;;;;;;11.07;10.07;;;16.20;99.80;;;;;;5010293;28;20456;-80
2021/06/10 02:43:33;;;;;;;10.70;9.77;;;16.20;99.90;;;;;;5017733;28;20465;-82
2021/06/10 02:46:01;;;;;;;10.40;9.40;;;16.10;99.90;;;;;;5016459;28;20444;-79
2021/06/10 02:48:29;;;;;;;9.80;9.00;;;16.10;99.90;;;;;;5008740;28;20456;-79
2021/06/10 02:50:56;;;;;;;13.93;10.50;;;16.10;99.90;;;;;;5002756;28;20462;-78
2021/06/10 02:53:24;;;;;;;10.65;9.73;;;16.00;99.90;;;;;;5014079;28;20518;-80
2021/06/10 02:55:54;;;;;;;12.43;9.63;;;16.00;99.90;;;;;;5021127;28;20215;-79
2021/06/10 02:58:23;;;;;;;11.20;9.87;;;15.90;99.90;;;;;;5021196;28;20431;-80
2021/06/10 03:00:50;;;;;;;11.43;10.32;;;15.80;99.90;;;;;;5018111;28;20452;-79
2021/06/10 03:03:17;;;;;;;11.85;9.90;;;15.80;99.90;;;;;;5013426;28;20232;-79
2021/06/10 03:05:45;;;;;;;10.67;9.57;;;15.80;99.90;;;;;;5008294;28;20212;-79
2021/06/10 03:08:14;;;;;;;10.77;9.53;;;15.70;99.90;;;;;;5011148;28;20511;-79
2021/06/10 03:10:41;;;;;;;9.73;8.83;;;15.70;99.90;;;;;;5014465;28;20444;-79
2021/06/10 03:13:10;;;;;;;11.93;9.33;;;15.70;99.90;;;;;;5016453;28;20445;-79
2021/06/10 03:15:37;;;;;;;11.98;10.90;;;15.80;99.90;;;;;;5016195;28;20824;-79
2021/06/10 03:18:05;;;;;;;10.45;9.43;;;15.80;99.90;;;;;;5020203;28;20223;-80
2021/06/10 03:20:32;;;;;;;10.63;9.33;;;15.70;99.90;;;;;;5020569;28;20188;-79
2021/06/10 03:22:58;;;;;;;10.90;9.80;;;15.70;99.90;;;;;;5019755;28;20491;-79
2021/06/10 03:25:26;;;;;;;10.80;9.57;;;15.70;99.90;;;;;;5019543;28;20426;-79
2021/06/10 03:27:53;;;;;;;10.30;9.30;;;15.70;99.90;;;;;;5015285;28;20434;-80
2021/06/10 03:30:22;;;;;;;11.03;9.87;;;15.70;99.90;;;;;;5011698;28;20490;-80
2021/06/10 03:32:49;;;;;;;11.50;10.40;;;15.70;99.90;;;;;;5015347;28;20456;-78
2021/06/10 03:35:16;;;;;;;11.73;9.93;;;15.70;99.90;;;;;;5007023;28;20458;-79
2021/06/10 03:37:43;;;;;;;10.20;9.20;;;15.70;99.90;;;;;;5009238;28;20474;-78
2021/06/10 03:40:13;;;;;;;10.47;9.47;;;15.70;99.90;;;;;;5001109;28;20460;-78
2021/06/10 03:42:40;;;;;;;11.37;10.40;;;15.70;99.90;;;;;;4999543;28;20472;-80
2021/06/10 03:45:08;;;;;;;10.07;9.07;;;15.80;99.90;;;;;;5000351;28;20494;-79
2021/06/10 03:47:39;;;;;;;10.10;9.10;;;15.80;99.90;;;;;;4998176;28;20504;-78
2021/06/10 03:50:08;;;;;;;10.13;9.23;;;15.80;99.90;;;;;;4997239;28;21090;-78
2021/06/10 03:52:35;;;;;;;10.40;9.57;;;15.90;99.90;;;;;;4997785;28;20464;-78
2021/06/10 03:55:05;;;;;;;9.77;8.70;;;15.90;99.90;;;;;;4996279;28;20483;-78
2021/06/10 03:57:31;;;;;;;9.93;8.93;;;16.00;99.90;;;;;;4996700;28;20505;-78
2021/06/10 03:59:58;;;;;;;12.80;9.27;;;16.00;99.90;;;;;;4996791;28;20491;-78
2021/06/10 04:02:25;;;;;;;10.37;9.30;;;16.10;99.90;;;;;;4996744;28;20537;-78
2021/06/10 04:04:54;;;;;;;9.97;9.17;;;16.20;99.90;;;;;;4997472;28;20474;-78
2021/06/10 04:07:21;;;;;;;9.97;9.07;;;16.20;99.60;;;;;;4997045;28;20505;-79
2021/06/10 04:09:47;;;;;;;10.07;9.07;;;16.20;99.00;;;;;;4996936;28;20501;-79
2021/06/10 04:12:14;;;;;;;10.03;9.20;;;16.30;98.30;;;;;;4996160;28;21003;-79
2021/06/10 04:14:40;;;;;;;8.83;7.93;;;16.40;97.60;;;;;;4996452;28;20510;-80
2021/06/10 04:17:07;;;;;;;9.20;8.40;;;16.50;97.60;;;;;;4996956;28;20550;-78
2021/06/10 04:19:33;;;;;;;9.33;8.63;;;16.60;96.80;;;;;;4996944;28;20510;-78
2021/06/10 04:22:01;;;;;;;9.17;8.37;;;16.70;96.10;;;;;;4998633;28;20504;-78
2021/06/10 04:24:27;;;;;;;9.00;8.30;;;16.80;95.00;;;;;;5017782;28;20466;-78
2021/06/10 04:26:54;;;;;;;9.50;8.60;;;16.90;94.10;;;;;;5018094;28;20434;-79
2021/06/10 04:29:20;;;;;;;9.37;8.57;;;17.00;93.50;;;;;;5004920;28;20483;-78
2021/06/10 04:31:47;;;;;;;8.43;7.73;;;17.00;92.70;;;;;;4998822;28;20960;-78
2021/06/10 04:34:13;;;;;;;9.10;8.37;;;17.00;92.70;;;;;;4997461;28;20866;-79
2021/06/10 04:36:39;;;;;;;8.60;7.83;;;17.10;92.20;;;;;;4996660;28;20498;-79
2021/06/10 04:39:07;;;;;;;8.93;8.13;;;17.10;91.80;;;;;;4995774;28;20455;-78
2021/06/10 04:41:34;;;;;;;8.70;7.90;;;17.20;91.60;;;;;;4996491;28;20458;-78
2021/06/10 04:44:00;;;;;;;9.87;8.87;;;17.10;91.30;;;;;;4999519;28;20464;-79
2021/06/10 04:46:27;;;;;;;8.70;7.73;;;17.30;91.10;;;;;;4998720;28;20517;-78
2021/06/10 04:48:56;;;;;;;7.67;7.07;;;17.50;90.60;;;;;;5001725;28;20551;-79
2021/06/10 04:51:22;;;;;;;9.20;8.40;;;17.70;90.20;;;;;;4997449;28;20451;-77
2021/06/10 04:53:49;;;;;;;8.53;7.73;;;17.90;87.20;;;;;;4999177;28;20565;-78
2021/06/10 04:56:18;;;;;;;8.50;7.70;;;18.20;85.60;;;;;;4997989;28;20539;-78
2021/06/10 04:58:44;;;;;;;8.07;7.30;;;18.50;81.40;;;;;;4998785;28;20426;-78
2021/06/10 05:01:10;;;;;;;7.80;7.07;;;18.70;78.90;;;;;;5000789;28;20558;-78
2021/06/10 05:03:37;;;;;;;7.57;6.87;;;18.70;77.40;;;;;;4998533;28;20479;-80
2021/06/10 05:06:04;;;;;;;10.10;7.43;;;18.90;76.30;;;;;;4995214;28;20525;-78
2021/06/10 05:08:30;;;;;;;7.77;6.90;;;19.00;75.80;;;;;;4996732;28;20426;-79
2021/06/10 05:10:57;;;;;;;8.00;7.30;;;19.30;74.40;;;;;;4996795;28;20911;-78
2021/06/10 05:13:25;;;;;;;8.27;7.50;;;19.30;72.60;;;;;;4996554;28;20919;-78
2021/06/10 05:15:51;;;;;;;8.47;7.20;;;19.50;71.70;;;;;;5005011;28;20436;-78
2021/06/10 05:18:17;;;;;;;7.93;7.13;;;19.10;71.90;;;;;;4997968;28;20456;-78
2021/06/10 05:20:45;;;;;;;9.60;7.30;;;19.10;73.60;;;;;;4995698;28;20473;-79
2021/06/10 05:23:12;;;;;;;8.57;7.50;;;19.20;73.70;;;;;;5004786;28;20507;-77
2021/06/10 05:25:38;;;;;;;10.30;7.70;;;19.40;73.00;;;;;;4994890;28;20455;-78
2021/06/10 05:28:05;;;;;;;8.27;6.90;;;19.40;72.20;;;;;;4995384;28;20501;-79
2021/06/10 05:30:33;;;;;;;8.40;7.57;;;19.50;72.20;;;;;;4995023;28;20484;-78
2021/06/10 05:32:59;;;;;;;11.73;8.00;;;19.60;71.60;;;;;;4996863;28;20526;-78
2021/06/10 05:35:26;;;;;;;8.63;7.93;;;19.70;70.70;;;;;;5003726;28;20475;-79
2021/06/10 05:37:52;;;;;;;8.50;7.60;;;19.80;69.60;;;;;;4996748;28;20548;-78
2021/06/10 05:40:19;;;;;;;8.80;8.00;;;19.90;69.50;;;;;;4996751;28;20479;-80
2021/06/10 05:42:46;;;;;;;10.10;8.23;;;20.40;68.20;;;;;;4995611;28;20467;-79
2021/06/10 05:45:14;;;;;;;8.50;7.60;;;21.10;63.80;;;;;;4995935;28;20413;-79
2021/06/10 05:47:41;;;;;;;8.67;7.87;;;21.70;60.10;;;;;;4999307;28;20436;-79
2021/06/10 05:50:08;;;;;;;9.00;7.80;;;22.30;57.10;;;;;;4995989;28;20524;-79
2021/06/10 05:52:35;;;;;;;9.27;8.33;;;22.70;54.80;;;;;;4996566;28;20490;-78
2021/06/10 05:55:02;;;;;;;10.90;7.90;;;22.70;54.10;;;;;;4998316;28;20469;-79
2021/06/10 05:57:29;;;;;;;8.70;7.90;;;22.70;53.90;;;;;;4999030;28;20494;-79
2021/06/10 05:59:55;;;;;;;8.47;7.67;;;22.80;54.40;;;;;;4999741;28;20853;-79
2021/06/10 06:02:21;;;;;;;8.20;7.50;;;23.00;53.20;;;;;;4999771;28;20480;-79
2021/06/10 06:04:50;;;;;;;8.50;7.70;;;23.40;52.10;;;;;;4998870;28;21034;-79
2021/06/10 06:07:17;;;;;;;7.50;6.90;;;23.40;52.00;;;;;;4997184;28;20455;-77
2021/06/10 06:09:49;;;;;;;10.50;7.40;;;23.30;51.90;;;;;;4999138;28;21018;-78
2021/06/10 06:12:15;;;;;;;8.50;7.70;;;23.00;52.40;;;;;;5005129;28;20432;-79
2021/06/10 06:14:44;;;;;;;8.87;7.97;;;22.80;53.30;;;;;;5012623;28;20475;-80
2021/06/10 06:17:12;;;;;;;7.40;6.70;;;22.70;54.30;;;;;;5009122;28;20550;-80
2021/06/10 06:19:39;;;;;;;8.40;7.60;;;23.10;53.60;;;;;;4997166;28;20462;-79
2021/06/10 06:22:09;;;;;;;9.33;8.53;;;23.00;53.00;;;;;;4996243;28;20494;-79
2021/06/10 06:24:36;;;;;;;10.90;7.50;;;22.90;53.70;;;;;;4995545;28;20489;-80
2021/06/10 06:27:03;;;;;;;9.60;8.57;;;23.40;52.60;;;;;;4996759;28;20471;-79
2021/06/10 06:29:29;;;;;;;8.87;8.10;;;24.00;52.60;;;;;;4996665;28;20980;-79
2021/06/10 06:31:56;;;;;;;8.17;7.47;;;24.60;48.40;;;;;;4997305;28;20436;-79
2021/06/10 06:34:22;;;;;;;8.80;8.00;;;24.60;47.50;;;;;;4996434;28;20487;-79
2021/06/10 06:36:49;;;;;;;7.80;7.20;;;24.60;47.20;;;;;;5005653;28;20418;-78
2021/06/10 06:39:17;;;;;;;12.63;7.73;;;24.50;48.30;;;;;;5014845;28;20945;-79
2021/06/10 06:41:43;;;;;;;8.83;7.93;;;24.50;48.10;;;;;;5002797;28;20444;-79
2021/06/10 06:44:10;;;;;;;11.70;7.67;;;24.60;47.90;;;;;;4994488;28;20458;-78
2021/06/10 06:46:37;;;;;;;7.97;7.37;;;24.60;48.20;;;;;;4997244;28;20547;-79
2021/06/10 06:49:03;;;;;;;8.47;7.70;;;24.70;48.00;;;;;;4999792;28;20566;-79
2021/06/10 06:51:30;;;;;;;9.47;8.70;;;24.90;47.40;;;;;;5003744;28;20475;-79
2021/06/10 06:53:56;;;;;;;9.13;8.23;;;25.00;46.40;;;;;;5004680;28;20476;-78
2021/06/10 06:56:24;;;;;;;8.20;7.40;;;24.80;47.30;;;;;;4998631;28;20500;-79
2021/06/10 06:58:51;;;;;;;8.50;7.80;;;24.80;47.60;;;;;;5002859;28;20469;-78
2021/06/10 07:01:18;;;;;;;8.97;8.27;;;24.70;47.60;;;;;;5006568;28;20480;-79
2021/06/10 07:03:45;;;;;;;10.37;8.53;;;24.50;48.00;;;;;;5008101;28;20468;-80
2021/06/10 07:06:12;;;;;;;10.00;9.00;;;24.20;49.00;;;;;;4998191;28;20484;-78
2021/06/10 07:08:38;;;;;;;110.57;23.53;;;23.90;50.50;;;;;;4997503;28;20537;-77
2021/06/10 07:11:05;;;;;;;10.57;9.57;;;23.40;52.00;;;;;;5005428;28;20513;-78
2021/06/10 07:13:33;;;;;;;19.50;10.40;;;23.40;52.00;;;;;;5006823;28;20450;-78
2021/06/10 07:15:59;;;;;;;9.73;8.90;;;23.20;53.40;;;;;;5004532;28;20938;-79
2021/06/10 07:18:26;;;;;;;9.53;8.60;;;23.20;53.50;;;;;;4999436;28;20426;-79
2021/06/10 07:20:53;;;;;;;11.23;9.90;;;23.10;54.20;;;;;;4998915;28;20452;-79
2021/06/10 07:23:20;;;;;;;10.50;9.40;;;23.10;55.00;;;;;;4998808;28;20547;-79
2021/06/10 07:25:47;;;;;;;11.10;10.00;;;23.10;55.20;;;;;;4998585;28;20562;-79
2021/06/10 07:28:13;;;;;;;13.67;12.30;;;23.10;55.50;;;;;;4998952;28;20473;-78
2021/06/10 07:30:42;;;;;;;12.23;10.37;;;23.20;55.50;;;;;;4998506;28;20473;-78
2021/06/10 07:33:08;;;;;;;11.03;10.00;;;23.10;55.50;;;;;;4997680;28;20561;-78
2021/06/10 07:35:35;;;;;;;10.83;9.73;;;23.20;55.50;;;;;;4998426;28;20442;-79
2021/06/10 07:38:04;;;;;;;10.47;9.47;;;23.20;55.80;;;;;;4999430;28;20467;-79
2021/06/10 07:40:31;;;;;;;11.20;10.10;;;23.30;55.60;;;;;;4998112;28;20444;-79
2021/06/10 07:42:58;;;;;;;14.87;10.20;;;23.10;56.00;;;;;;4998860;28;20479;-79
2021/06/10 07:45:26;;;;;;;13.23;11.90;;;23.00;57.20;;;;;;4999480;28;20488;-78
2021/06/10 07:47:54;;;;;;;13.03;10.27;;;23.10;56.80;;;;;;5001629;28;20467;-79
2021/06/10 07:50:21;;;;;;;12.30;10.70;;;23.20;57.00;;;;;;5005582;28;20500;-79
2021/06/10 07:52:48;;;;;;;13.57;12.27;;;23.40;56.10;;;;;;5009007;28;20425;-80
2021/06/10 07:55:15;;;;;;;12.83;11.53;;;23.60;54.70;;;;;;5019556;28;20448;-80
2021/06/10 07:57:41;;;;;;;12.63;11.13;;;23.70;54.30;;;;;;5010648;28;20963;-78
2021/06/10 08:00:09;;;;;;;12.80;11.70;;;23.80;54.20;;;;;;5000799;28;20515;-78
2021/06/10 08:02:35;;;;;;;13.03;11.73;;;23.70;54.60;;;;;;5002909;28;20441;-79
2021/06/10 08:05:04;;;;;;;14.10;12.77;;;23.80;54.80;;;;;;5003097;28;20543;-79
2021/06/10 08:07:30;;;;;;;16.27;14.73;;;23.60;53.50;;;;;;5005171;28;20490;-78
2021/06/10 08:09:57;;;;;;;21.13;15.00;;;23.50;53.00;;;;;;4996912;28;20483;-78
2021/06/10 08:12:23;;;;;;;15.87;13.87;;;23.60;52.30;;;;;;4998781;28;20821;-79
2021/06/10 08:14:50;;;;;;;16.20;14.70;;;23.60;53.40;;;;;;4999041;28;20843;-77
2021/06/10 08:17:17;;;;;;;16.77;15.10;;;23.60;52.20;;;;;;5004640;28;20438;-78
2021/06/10 08:19:44;;;;;;;18.33;16.30;;;23.80;52.40;;;;;;4998749;28;20414;-79
2021/06/10 08:22:12;;;;;;;17.50;16.00;;;23.90;52.40;;;;;;4998276;28;20527;-78
2021/06/10 08:24:38;;;;;;;20.97;18.97;;;24.00;52.60;;;;;;4998411;28;20497;-78
2021/06/10 08:27:07;;;;;;;23.90;18.43;;;24.00;51.10;;;;;;5001640;28;20462;-78
2021/06/10 08:29:41;;;;;;;19.83;17.37;;;24.00;51.20;;;;;;5004862;28;20523;-78
2021/06/10 08:32:08;;;;;;;16.80;15.17;;;24.10;51.70;;;;;;5008635;28;20410;-80
2021/06/10 08:34:34;;;;;;;17.70;15.87;;;24.00;52.60;;;;;;5001917;28;20442;-79
2021/06/10 08:37:01;;;;;;;18.53;16.83;;;24.10;51.90;;;;;;5003068;28;20427;-79
2021/06/10 08:39:29;;;;;;;23.37;17.10;;;24.10;51.90;;;;;;5011061;28;20508;-79
2021/06/10 08:41:56;;;;;;;16.70;15.20;;;24.20;51.30;;;;;;5000974;28;20462;-79
2021/06/10 08:44:24;;;;;;;16.70;14.73;;;24.20;51.80;;;;;;5005545;28;20441;-80
2021/06/10 08:46:51;;;;;;;18.13;16.43;;;24.40;51.50;;;;;;5004880;28;20430;-79
2021/06/10 08:49:19;;;;;;;17.80;16.20;;;24.60;50.50;;;;;;4999611;28;20487;-79
2021/06/10 08:51:46;;;;;;;22.90;17.40;;;24.60;51.10;;;;;;4998585;28;20537;-78
2021/06/10 08:54:12;;;;;;;32.43;18.40;;;24.60;50.80;;;;;;5002660;28;20584;-79
2021/06/10 08:56:43;;;;;;;18.73;16.40;;;24.70;51.40;;;;;;4999697;28;20438;-79
2021/06/10 08:59:09;;;;;;;19.87;15.57;;;24.50;51.10;;;;;;4999135;28;20546;-79
2021/06/10 09:01:36;;;;;;;17.73;15.93;;;24.20;52.80;;;;;;5011679;28;20432;-79
2021/06/10 09:04:04;;;;;;;32.70;17.90;;;24.40;51.80;;;;;;5008467;28;20487;-79
2021/06/10 09:06:45;;;;;;;17.60;15.80;;;24.60;50.80;;;;;;5004680;28;20453;-79
2021/06/10 09:09:12;;;;;;;16.37;14.97;;;24.90;50.60;;;;;;4999317;28;20496;-78
2021/06/10 09:11:40;;;;;;;19.77;17.97;;;25.20;50.10;;;;;;5000631;28;20484;-79
2021/06/10 09:14:09;;;;;;;18.47;16.60;;;25.20;48.70;;;;;;5000245;28;20550;-79
2021/06/10 09:16:38;;;;;;;16.80;15.27;;;25.00;49.40;;;;;;5059609;23;20481;-78
2021/06/10 09:19:09;;;;;;;16.57;14.80;;;25.00;49.80;;;;;;5068503;22;20503;-79
2021/06/10 09:21:38;;;;;;;16.90;15.40;;;25.10;50.40;;;;;;5009895;28;20455;-79
2021/06/10 09:24:23;;;;;;;18.37;16.60;;;25.20;49.30;;;;;;5010439;28;20788;-78
2021/06/10 09:27:07;;;;;;;23.10;16.37;;;25.20;49.00;;;;;;4998039;28;20454;-78
2021/06/10 09:29:39;;;;;;;17.63;15.97;;;25.30;49.00;;;;;;5001589;28;20504;-79
2021/06/10 09:32:09;;;;;;;17.83;16.23;;;25.20;48.90;;;;;;5004024;28;20525;-78
2021/06/10 09:34:54;;;;;;;16.93;15.43;;;24.40;53.00;;;;;;5001527;28;20499;-79
2021/06/10 09:37:33;;;;;;;16.27;14.87;;;24.40;53.00;;;;;;5004498;28;20441;-80
2021/06/10 09:40:01;;;;;;;20.60;15.53;;;25.00;51.30;;;;;;5004897;28;20438;-79
2021/06/10 09:42:31;;;;;;;17.00;15.50;;;25.30;49.40;;;;;;4999989;28;20469;-79
2021/06/10 09:44:59;;;;;;;17.30;15.83;;;25.30;49.10;;;;;;4997281;28;20459;-78
2021/06/10 09:47:34;;;;;;;17.97;16.33;;;25.20;48.90;;;;;;5000515;28;20485;-78
2021/06/10 09:50:19;;;;;;;17.93;16.17;;;25.40;48.10;;;;;;4996943;28;20463;-78
2021/06/10 09:52:53;;;;;;;17.50;15.77;;;25.60;48.00;;;;;;4997471;28;20432;-80
2021/06/10 09:55:34;;;;;;;17.93;16.40;;;25.90;46.80;;;;;;5006290;28;20443;-79
2021/06/10 09:58:39;;;;;;;18.03;16.50;;;25.90;45.30;;;;;;5004979;28;20444;-79
2021/06/10 10:01:10;;;;;;;15.87;14.47;;;26.00;45.60;;;;;;5005774;28;20473;-79
2021/06/10 10:03:41;;;;;;;16.03;14.67;;;26.20;44.30;;;;;;5004513;28;20501;-79
2021/06/10 10:06:16;;;;;;;16.57;15.17;;;26.20;44.30;;;;;;4999365;28;20438;-79
2021/06/10 10:08:45;;;;;;;18.13;16.63;;;26.10;44.60;;;;;;4997689;28;20498;-79
2021/06/10 10:11:12;;;;;;;18.80;17.00;;;26.00;45.20;;;;;;4998445;28;20540;-79
2021/06/10 10:13:40;;;;;;;16.97;15.23;;;26.00;45.70;;;;;;5000792;28;20473;-80
2021/06/10 10:16:08;;;;;;;16.90;15.50;;;26.00;46.00;;;;;;5001282;28;20949;-78
2021/06/10 10:18:34;;;;;;;15.67;14.20;;;26.00;45.70;;;;;;5003151;28;20437;-80
2021/06/10 10:21:02;;;;;;;17.60;16.10;;;25.70;47.30;;;;;;5006862;28;20437;-79
2021/06/10 10:23:28;;;;;;;17.40;15.80;;;25.80;46.00;;;;;;5008201;28;20429;-79
2021/06/10 10:25:59;;;;;;;18.03;16.20;;;26.20;45.80;;;;;;5011651;28;20476;-79
2021/06/10 10:28:28;;;;;;;16.10;14.70;;;26.50;44.60;;;;;;5009925;28;20567;-81
2021/06/10 10:30:57;;;;;;;15.07;13.87;;;26.60;44.60;;;;;;5007332;28;20480;-80
2021/06/10 10:33:25;;;;;;;16.67;15.27;;;26.70;43.90;;;;;;5014228;28;20514;-81
2021/06/10 10:35:53;;;;;;;17.30;15.80;;;26.80;42.50;;;;;;5009626;28;20429;-80
2021/06/10 10:38:28;;;;;;;16.50;14.73;;;26.90;42.80;;;;;;4999796;28;20462;-80
2021/06/10 10:40:59;;;;;;;15.57;13.97;;;26.90;42.10;;;;;;4998540;28;20438;-80
2021/06/10 10:43:26;;;;;;;16.40;15.07;;;27.10;42.40;;;;;;4999232;28;20543;-80
2021/06/10 10:46:10;;;;;;;16.23;14.70;;;26.50;43.90;;;;;;5005199;28;20506;-79
2021/06/10 10:48:39;;;;;;;16.07;14.67;;;26.80;43.80;;;;;;5008712;28;20498;-80
2021/06/10 10:51:27;;;;;;;17.77;13.93;;;27.10;42.60;;;;;;5012664;28;20465;-79
2021/06/10 10:53:58;;;;;;;14.50;13.30;;;27.20;42.00;;;;;;5008955;28;20461;-81
2021/06/10 10:56:37;;;;;;;14.97;13.57;;;27.60;41.40;;;;;;5004892;28;20449;-80
2021/06/10 10:59:11;;;;;;;14.77;13.60;;;27.90;39.80;;;;;;5002200;28;20494;-79
2021/06/10 11:01:39;;;;;;;15.57;14.30;;;27.90;39.20;;;;;;5001486;28;21120;-79
2021/06/10 11:04:06;;;;;;;12.93;11.80;;;27.50;39.30;;;;;;5001765;28;21046;-79
2021/06/10 11:06:34;;;;;;;12.87;11.87;;;27.60;38.50;;;;;;5001712;28;20467;-80
2021/06/10 11:11:56;;;;;;;14.50;13.07;;;27.60;35.40;;;;;;5020858;28;20520;-79
2021/06/10 11:14:41;;;;;;;12.00;11.00;;;27.40;36.80;;;;;;5142940;23;20475;-80
2021/06/10 11:17:24;;;;;;;14.73;13.53;;;27.50;36.50;;;;;;5010573;28;20431;-80
2021/06/10 11:19:53;;;;;;;15.13;13.60;;;27.50;38.70;;;;;;5008893;28;20483;-79
2021/06/10 11:22:29;;;;;;;14.53;13.33;;;27.50;38.70;;;;;;5021956;28;20413;-80
2021/06/10 11:24:56;;;;;;;14.03;12.53;;;27.60;38.20;;;;;;5020367;28;20496;-78
2021/06/10 11:27:41;;;;;;;14.37;13.37;;;27.90;37.80;;;;;;5021392;28;20471;-79
2021/06/10 11:30:17;;;;;;;14.40;12.90;;;27.80;38.70;;;;;;5017253;28;20451;-79
2021/06/10 11:32:59;;;;;;;14.00;12.80;;;27.40;39.50;;;;;;5013530;28;20447;-78
2021/06/10 11:35:30;;;;;;;12.70;11.70;;;28.20;37.30;;;;;;5014356;28;20416;-78
2021/06/10 11:37:57;;;;;;;13.93;12.60;;;28.80;35.80;;;;;;5015127;28;20443;-79
2021/06/10 11:40:24;;;;;;;12.93;11.70;;;29.00;35.80;;;;;;5013142;28;20458;-78
2021/06/10 11:42:51;;;;;;;12.30;11.13;;;29.00;34.00;;;;;;5008332;28;20437;-79
2021/06/10 11:45:21;;;;;;;20.93;11.80;;;29.40;34.00;;;;;;5011814;28;20541;-78
2021/06/10 11:47:49;;;;;;;13.03;12.03;;;29.50;33.30;;;;;;5008367;28;20487;-79
2021/06/10 11:50:29;;;;;;;12.77;11.73;;;29.60;33.20;;;;;;5009130;28;20479;-79
2021/06/10 11:52:58;;;;;;;12.13;11.23;;;29.30;32.80;;;;;;5006050;28;20710;-79
2021/06/10 11:55:27;;;;;;;13.53;12.33;;;28.90;34.40;;;;;;5005670;28;20485;-79
2021/06/10 11:58:03;;;;;;;13.20;12.10;;;29.00;33.50;;;;;;5000831;28;20458;-80
2021/06/10 12:00:32;;;;;;;12.87;11.87;;;28.80;34.10;;;;;;5005728;28;20434;-79
2021/06/10 12:03:00;;;;;;;15.60;11.90;;;28.60;34.60;;;;;;5001706;28;20929;-80
2021/06/10 12:05:32;;;;;;;12.50;11.50;;;28.30;33.70;;;;;;5005180;28;20442;-79
2021/06/10 12:08:10;;;;;;;12.47;11.37;;;28.00;35.30;;;;;;5003927;28;20449;-78
2021/06/10 12:10:37;;;;;;;11.03;10.23;;;28.20;34.40;;;;;;5005773;28;20501;-80
2021/06/10 12:13:04;;;;;;;11.20;10.20;;;28.40;31.80;;;;;;5004435;28;20482;-79
2021/06/10 12:15:36;;;;;;;10.57;9.67;;;28.70;30.00;;;;;;5012335;28;20524;-79
2021/06/10 12:18:04;;;;;;;11.20;10.00;;;28.60;30.40;;;;;;5011269;28;20523;-78
2021/06/10 12:20:32;;;;;;;10.00;9.10;;;28.70;29.60;;;;;;5009629;28;20433;-78
2021/06/10 12:23:00;;;;;;;11.10;10.20;;;28.70;29.00;;;;;;5010585;28;20637;-80
2021/06/10 12:25:28;;;;;;;9.07;8.30;;;28.60;30.40;;;;;;5010018;28;20519;-79
2021/06/10 12:27:56;;;;;;;11.60;9.87;;;28.60;28.50;;;;;;5006764;28;20432;-80
2021/06/10 12:30:30;;;;;;;8.77;8.07;;;28.90;28.00;;;;;;5001997;28;20489;-79
2021/06/10 12:33:18;;;;;;;9.87;8.97;;;28.90;26.40;;;;;;5001860;28;20877;-79
2021/06/10 12:35:48;;;;;;;9.67;8.97;;;28.90;27.80;;;;;;5002154;28;20440;-78
2021/06/10 12:38:16;;;;;;;10.00;9.30;;;28.90;26.40;;;;;;5008661;28;20445;-79
2021/06/10 12:40:44;;;;;;;11.00;9.90;;;28.70;27.30;;;;;;5003037;28;20445;-79
2021/06/10 12:43:20;;;;;;;9.67;8.77;;;28.10;28.00;;;;;;5002146;28;20481;-80
2021/06/10 12:45:47;;;;;;;10.20;9.37;;;27.80;28.30;;;;;;5003987;28;20491;-78